Archival Weather

Chicago O'Hare International

Chicago, Illinois (KORD)

Report from: Wednesday, January 25, 2023 4:51 AM CST
Current time: Monday, February 6, 2023 12:13 AM CST

Current weather
Weather history
Weather forecast

Present weatherLight snow
Temperature-0.6°C (30.9°F)
Wind chill-2.5°C (27.5°F)
Dew point-2.2°C (28.0°F)
Winds 3 kts (1.5 m/s, 3.5 mph) Northeast (50°)
Visibility0.8 mi. (1.2 km)
Clouds Ceiling: Overcast 800 ft. (244 m)
Altimeter29.86 in.Hg (1011 mB)
Precipitiation0.03 in. (1 mm)
Relative humidity89 %
Density altitude-1,758 ft. (-536 m)
Sea-level pressure101.2 kPa (1012 mB, 29.88 in.Hg)
Remarks Automated weather observing station with precipitation discriminator
Flight conditions Low Instrument Meteorological Conditions
Raw dataKORD 251051Z 05003KT 3/4SM R10L/5500V6000FT -SN OVC008 M01/M02 A2986 RMK AO2 SLP119 P0003 T10061022
An error has occurred. This application may no longer respond until reloaded. Reload 🗙